Aérodrome :
LOGIN :

S'inscrire | Disclaimer

   EN    FR    IT 

 










Légende :    VFR   VFR Marginal   IFR   IFR Intensif   IFR Très Intensif
Visi : 
Plafond : 
>= 8 km
>= 3000ft
5 à 8 km
1000 à 3000 ft
1500m à 5 km
500 à 1000 ft
800 à 1500m
200 à 500 ft
< 800m
< 200 ft
Symboles :   Orages  Brouillard  Fortes neiges  Fortes précipitations  Vent > 20 kt
SIGMETs :   Divers  Orages  Givrage  Turbulence  Onde Orograph.  Cendres Volcan.







- Altitude de l'aérodrome : 505 ft
- Code IATA : SXB
- Voir les cartes d'approche


LFST - Strasbourg

DERNIER METAR :
  • 141000Z AUTO 32010KT 260V360 9999 SCT044 BKN054 24/13 Q1016 NOSIG

METARs EXPIRÉS :
  • 140930Z AUTO VRB06KT 9999 BKN041 BKN050 23/14 Q1016 NOSIG
  • 140900Z AUTO 34005KT 270V030 9999 SCT032 BKN038 BKN047 21/15 Q1016 NOSIG
  • 140830Z AUTO VRB02KT 9999 BKN031 BKN039 BKN045 22/15 Q1016 NOSIG
  • 140800Z AUTO 20005KT 110V260 9999 SCT029 22/14 Q1016 NOSIG
  • 140730Z AUTO 15004KT 080V200 CAVOK 21/15 Q1016 BECMG 30010KT

TAF TAF LFST
Valide du 14 à 06h jusqu'au 15 à 06h UTC


140500Z 1406/1506 VRB03KT 9999 BKN050
BECMG 1409/1412 30010KT
BECMG 1419/1422 VRB03KT
Pas de NOTAMs connus pour ce terrain.



MET'MAP, la Météo Aéronautique d'un coup d'oeil ! - Copyright ORBIFLY Décembre 2007 - Disclaimer

ORBIFLY MET'MAP TEAM :

Programmation & Développement : Alexandra Zaïnal
Conception & Développement : Baudouin d'Aumeries
Co-Programmation & Développement : Marc-Olivier Méhu
Soutien technique & logistique : Manuel Goepfert

Contact : metmap@orbifly.com




SOURCES & CREDITS :

   NOAA